sensor_id;sensor_type;location;lat;lon;timestamp;P1;durP1;ratioP1;P2;durP2;ratioP2
55150;SDS011;41041;43.162;20.538;2023-03-04T00:02:14;24.40;;;14.13;;
55150;SDS011;41041;43.162;20.538;2023-03-04T00:04:39;24.30;;;14.02;;
55150;SDS011;41041;43.162;20.538;2023-03-04T00:07:05;25.23;;;14.25;;
55150;SDS011;41041;43.162;20.538;2023-03-04T00:09:31;23.85;;;13.48;;
55150;SDS011;41041;43.162;20.538;2023-03-04T00:11:57;22.45;;;14.15;;
55150;SDS011;41041;43.162;20.538;2023-03-04T00:14:22;27.63;;;16.30;;
55150;SDS011;41041;43.162;20.538;2023-03-04T00:16:58;24.02;;;14.23;;
55150;SDS011;41041;43.162;20.538;2023-03-04T00:19:24;31.35;;;17.17;;
55150;SDS011;41041;43.162;20.538;2023-03-04T00:21:50;24.05;;;14.52;;
55150;SDS011;41041;43.162;20.538;2023-03-04T00:24:16;33.60;;;18.75;;
55150;SDS011;41041;43.162;20.538;2023-03-04T00:26:42;37.60;;;20.60;;
55150;SDS011;41041;43.162;20.538;2023-03-04T00:29:08;34.13;;;19.27;;
55150;SDS011;41041;43.162;20.538;2023-03-04T00:31:36;34.50;;;18.70;;
55150;SDS011;41041;43.162;20.538;2023-03-04T00:34:02;35.25;;;19.48;;
55150;SDS011;41041;43.162;20.538;2023-03-04T00:36:28;37.45;;;19.85;;
55150;SDS011;41041;43.162;20.538;2023-03-04T00:38:54;29.98;;;16.95;;
55150;SDS011;41041;43.162;20.538;2023-03-04T00:41:19;27.70;;;16.40;;
55150;SDS011;41041;43.162;20.538;2023-03-04T00:43:45;23.23;;;13.77;;
55150;SDS011;41041;43.162;20.538;2023-03-04T00:46:11;29.13;;;15.93;;
55150;SDS011;41041;43.162;20.538;2023-03-04T00:48:36;28.67;;;17.15;;
55150;SDS011;41041;43.162;20.538;2023-03-04T00:51:03;23.25;;;13.38;;
55150;SDS011;41041;43.162;20.538;2023-03-04T00:53:29;18.30;;;10.65;;
55150;SDS011;41041;43.162;20.538;2023-03-04T00:55:55;23.33;;;13.75;;
55150;SDS011;41041;43.162;20.538;2023-03-04T00:58:21;22.20;;;12.88;;
55150;SDS011;41041;43.162;20.538;2023-03-04T01:00:46;16.33;;;9.32;;
55150;SDS011;41041;43.162;20.538;2023-03-04T01:03:12;28.75;;;16.60;;
55150;SDS011;41041;43.162;20.538;2023-03-04T01:05:38;36.47;;;21.13;;
55150;SDS011;41041;43.162;20.538;2023-03-04T01:08:05;29.13;;;16.42;;
55150;SDS011;41041;43.162;20.538;2023-03-04T01:10:30;30.20;;;17.05;;
55150;SDS011;41041;43.162;20.538;2023-03-04T01:12:57;24.73;;;14.13;;
55150;SDS011;41041;43.162;20.538;2023-03-04T01:15:22;25.45;;;15.15;;
55150;SDS011;41041;43.162;20.538;2023-03-04T01:17:48;29.10;;;15.15;;
55150;SDS011;41041;43.162;20.538;2023-03-04T01:20:14;26.17;;;13.82;;
55150;SDS011;41041;43.162;20.538;2023-03-04T01:22:41;25.90;;;14.57;;
55150;SDS011;41041;43.162;20.538;2023-03-04T01:25:07;20.77;;;11.63;;
55150;SDS011;41041;43.162;20.538;2023-03-04T01:27:33;23.35;;;12.13;;
55150;SDS011;41041;43.162;20.538;2023-03-04T01:29:59;20.90;;;12.43;;
55150;SDS011;41041;43.162;20.538;2023-03-04T01:32:25;17.75;;;10.18;;
55150;SDS011;41041;43.162;20.538;2023-03-04T01:34:51;18.08;;;8.70;;
55150;SDS011;41041;43.162;20.538;2023-03-04T01:37:16;16.52;;;9.27;;
55150;SDS011;41041;43.162;20.538;2023-03-04T01:39:42;15.93;;;8.63;;
55150;SDS011;41041;43.162;20.538;2023-03-04T01:42:13;14.60;;;7.38;;
55150;SDS011;41041;43.162;20.538;2023-03-04T01:44:42;14.15;;;7.00;;
55150;SDS011;41041;43.162;20.538;2023-03-04T01:47:08;16.15;;;9.50;;
55150;SDS011;41041;43.162;20.538;2023-03-04T01:49:35;17.42;;;9.57;;
55150;SDS011;41041;43.162;20.538;2023-03-04T01:52:01;21.52;;;10.90;;
55150;SDS011;41041;43.162;20.538;2023-03-04T01:54:27;21.83;;;11.23;;
55150;SDS011;41041;43.162;20.538;2023-03-04T01:56:53;19.73;;;10.70;;
55150;SDS011;41041;43.162;20.538;2023-03-04T01:59:21;17.00;;;8.95;;
55150;SDS011;41041;43.162;20.538;2023-03-04T02:01:54;14.90;;;8.20;;
55150;SDS011;41041;43.162;20.538;2023-03-04T02:06:50;16.25;;;8.27;;
55150;SDS011;41041;43.162;20.538;2023-03-04T02:09:16;13.18;;;7.32;;
55150;SDS011;41041;43.162;20.538;2023-03-04T02:11:43;15.90;;;7.82;;
55150;SDS011;41041;43.162;20.538;2023-03-04T02:14:10;14.30;;;7.68;;
55150;SDS011;41041;43.162;20.538;2023-03-04T02:16:36;13.73;;;7.97;;
55150;SDS011;41041;43.162;20.538;2023-03-04T02:19:04;13.07;;;7.88;;
55150;SDS011;41041;43.162;20.538;2023-03-04T02:21:32;13.52;;;7.88;;
55150;SDS011;41041;43.162;20.538;2023-03-04T02:24:08;14.38;;;7.50;;
55150;SDS011;41041;43.162;20.538;2023-03-04T02:26:39;13.20;;;8.18;;
55150;SDS011;41041;43.162;20.538;2023-03-04T02:29:07;14.20;;;8.25;;
55150;SDS011;41041;43.162;20.538;2023-03-04T02:31:36;16.13;;;8.20;;
55150;SDS011;41041;43.162;20.538;2023-03-04T02:34:10;16.35;;;9.52;;
55150;SDS011;41041;43.162;20.538;2023-03-04T02:36:37;16.65;;;9.52;;
55150;SDS011;41041;43.162;20.538;2023-03-04T02:39:11;16.02;;;9.10;;
55150;SDS011;41041;43.162;20.538;2023-03-04T02:41:38;16.27;;;9.00;;
55150;SDS011;41041;43.162;20.538;2023-03-04T02:44:09;17.50;;;8.82;;
55150;SDS011;41041;43.162;20.538;2023-03-04T02:49:14;18.42;;;9.55;;
55150;SDS011;41041;43.162;20.538;2023-03-04T02:51:41;16.27;;;9.27;;
55150;SDS011;41041;43.162;20.538;2023-03-04T02:54:17;18.02;;;9.73;;
55150;SDS011;41041;43.162;20.538;2023-03-04T02:56:44;18.48;;;9.20;;
55150;SDS011;41041;43.162;20.538;2023-03-04T02:59:11;17.35;;;8.65;;
55150;SDS011;41041;43.162;20.538;2023-03-04T03:01:37;16.83;;;8.57;;
55150;SDS011;41041;43.162;20.538;2023-03-04T03:04:03;16.63;;;8.60;;
55150;SDS011;41041;43.162;20.538;2023-03-04T03:06:29;12.85;;;7.60;;
55150;SDS011;41041;43.162;20.538;2023-03-04T03:08:55;15.00;;;8.20;;
55150;SDS011;41041;43.162;20.538;2023-03-04T03:11:21;13.80;;;7.70;;
55150;SDS011;41041;43.162;20.538;2023-03-04T03:13:47;18.98;;;8.07;;
55150;SDS011;41041;43.162;20.538;2023-03-04T03:16:13;17.15;;;9.00;;
55150;SDS011;41041;43.162;20.538;2023-03-04T03:18:39;13.30;;;7.75;;
55150;SDS011;41041;43.162;20.538;2023-03-04T03:21:06;12.73;;;6.65;;
55150;SDS011;41041;43.162;20.538;2023-03-04T03:23:32;13.52;;;7.57;;
55150;SDS011;41041;43.162;20.538;2023-03-04T03:25:59;18.27;;;10.05;;
55150;SDS011;41041;43.162;20.538;2023-03-04T03:28:25;18.38;;;10.63;;
55150;SDS011;41041;43.162;20.538;2023-03-04T03:30:51;17.65;;;10.65;;
55150;SDS011;41041;43.162;20.538;2023-03-04T03:33:16;20.75;;;11.10;;
55150;SDS011;41041;43.162;20.538;2023-03-04T03:35:42;18.65;;;10.23;;
55150;SDS011;41041;43.162;20.538;2023-03-04T03:38:08;16.35;;;9.77;;
55150;SDS011;41041;43.162;20.538;2023-03-04T03:40:34;18.48;;;9.90;;
55150;SDS011;41041;43.162;20.538;2023-03-04T03:42:59;16.15;;;9.55;;
55150;SDS011;41041;43.162;20.538;2023-03-04T03:45:25;17.83;;;9.82;;
55150;SDS011;41041;43.162;20.538;2023-03-04T03:47:51;17.13;;;9.02;;
55150;SDS011;41041;43.162;20.538;2023-03-04T03:50:17;16.90;;;9.27;;
55150;SDS011;41041;43.162;20.538;2023-03-04T03:52:43;16.98;;;9.82;;
55150;SDS011;41041;43.162;20.538;2023-03-04T03:55:09;20.00;;;9.75;;
55150;SDS011;41041;43.162;20.538;2023-03-04T03:57:34;25.20;;;11.70;;
55150;SDS011;41041;43.162;20.538;2023-03-04T04:00:00;22.50;;;11.70;;
55150;SDS011;41041;43.162;20.538;2023-03-04T04:02:34;19.23;;;9.52;;
55150;SDS011;41041;43.162;20.538;2023-03-04T04:04:59;26.55;;;10.70;;
55150;SDS011;41041;43.162;20.538;2023-03-04T04:07:30;18.73;;;10.23;;
55150;SDS011;41041;43.162;20.538;2023-03-04T04:09:56;19.13;;;10.07;;
55150;SDS011;41041;43.162;20.538;2023-03-04T04:14:51;15.77;;;9.07;;
55150;SDS011;41041;43.162;20.538;2023-03-04T04:17:16;16.40;;;9.40;;
55150;SDS011;41041;43.162;20.538;2023-03-04T04:19:42;17.42;;;9.68;;
55150;SDS011;41041;43.162;20.538;2023-03-04T04:22:12;18.98;;;10.05;;
55150;SDS011;41041;43.162;20.538;2023-03-04T04:24:40;20.15;;;9.80;;
55150;SDS011;41041;43.162;20.538;2023-03-04T04:27:06;20.73;;;10.10;;
55150;SDS011;41041;43.162;20.538;2023-03-04T04:29:32;14.55;;;8.98;;
55150;SDS011;41041;43.162;20.538;2023-03-04T04:31:58;14.77;;;8.80;;
55150;SDS011;41041;43.162;20.538;2023-03-04T04:34:24;15.63;;;9.30;;
55150;SDS011;41041;43.162;20.538;2023-03-04T04:36:50;19.00;;;10.02;;
55150;SDS011;41041;43.162;20.538;2023-03-04T04:39:16;21.15;;;10.52;;
55150;SDS011;41041;43.162;20.538;2023-03-04T04:41:42;18.35;;;9.50;;
55150;SDS011;41041;43.162;20.538;2023-03-04T04:44:10;15.73;;;8.98;;
55150;SDS011;41041;43.162;20.538;2023-03-04T04:46:37;15.27;;;8.57;;
55150;SDS011;41041;43.162;20.538;2023-03-04T04:49:04;17.40;;;9.57;;
55150;SDS011;41041;43.162;20.538;2023-03-04T04:51:30;19.52;;;9.98;;
55150;SDS011;41041;43.162;20.538;2023-03-04T04:53:57;20.52;;;11.68;;
55150;SDS011;41041;43.162;20.538;2023-03-04T04:56:24;19.27;;;11.13;;
55150;SDS011;41041;43.162;20.538;2023-03-04T04:58:51;19.90;;;10.98;;
55150;SDS011;41041;43.162;20.538;2023-03-04T05:01:18;22.45;;;11.90;;
55150;SDS011;41041;43.162;20.538;2023-03-04T05:03:44;22.88;;;12.43;;
55150;SDS011;41041;43.162;20.538;2023-03-04T05:06:10;25.98;;;13.60;;
55150;SDS011;41041;43.162;20.538;2023-03-04T05:08:37;23.50;;;12.65;;
55150;SDS011;41041;43.162;20.538;2023-03-04T05:11:03;22.27;;;12.43;;
55150;SDS011;41041;43.162;20.538;2023-03-04T05:13:30;20.05;;;11.95;;
55150;SDS011;41041;43.162;20.538;2023-03-04T05:15:57;22.05;;;12.05;;
55150;SDS011;41041;43.162;20.538;2023-03-04T05:18:24;29.30;;;14.52;;
55150;SDS011;41041;43.162;20.538;2023-03-04T05:20:51;31.48;;;16.90;;
55150;SDS011;41041;43.162;20.538;2023-03-04T05:23:17;25.58;;;14.55;;
55150;SDS011;41041;43.162;20.538;2023-03-04T05:25:44;25.35;;;14.00;;
55150;SDS011;41041;43.162;20.538;2023-03-04T05:28:09;26.23;;;13.75;;
55150;SDS011;41041;43.162;20.538;2023-03-04T05:30:39;46.80;;;27.88;;
55150;SDS011;41041;43.162;20.538;2023-03-04T05:33:07;42.10;;;24.07;;
55150;SDS011;41041;43.162;20.538;2023-03-04T05:35:37;33.35;;;17.98;;
55150;SDS011;41041;43.162;20.538;2023-03-04T05:38:12;34.22;;;18.48;;
55150;SDS011;41041;43.162;20.538;2023-03-04T05:40:39;35.15;;;17.85;;
55150;SDS011;41041;43.162;20.538;2023-03-04T05:43:05;35.50;;;20.00;;
55150;SDS011;41041;43.162;20.538;2023-03-04T05:45:31;39.33;;;22.15;;
55150;SDS011;41041;43.162;20.538;2023-03-04T05:47:57;38.05;;;20.15;;
55150;SDS011;41041;43.162;20.538;2023-03-04T05:50:23;33.78;;;19.30;;
55150;SDS011;41041;43.162;20.538;2023-03-04T05:52:49;34.05;;;18.23;;
55150;SDS011;41041;43.162;20.538;2023-03-04T05:55:15;27.98;;;15.27;;
55150;SDS011;41041;43.162;20.538;2023-03-04T05:57:42;31.27;;;16.40;;
55150;SDS011;41041;43.162;20.538;2023-03-04T06:02:47;29.73;;;15.40;;
55150;SDS011;41041;43.162;20.538;2023-03-04T06:05:13;28.33;;;16.05;;
55150;SDS011;41041;43.162;20.538;2023-03-04T06:07:40;26.33;;;14.77;;
55150;SDS011;41041;43.162;20.538;2023-03-04T06:10:10;26.92;;;13.32;;
55150;SDS011;41041;43.162;20.538;2023-03-04T06:12:36;33.28;;;16.83;;
55150;SDS011;41041;43.162;20.538;2023-03-04T06:15:02;35.72;;;18.02;;
55150;SDS011;41041;43.162;20.538;2023-03-04T06:17:30;31.25;;;17.38;;
55150;SDS011;41041;43.162;20.538;2023-03-04T06:19:56;27.17;;;13.90;;
55150;SDS011;41041;43.162;20.538;2023-03-04T06:22:24;24.30;;;12.75;;
55150;SDS011;41041;43.162;20.538;2023-03-04T06:24:50;23.20;;;12.48;;
55150;SDS011;41041;43.162;20.538;2023-03-04T06:27:16;26.90;;;16.67;;
55150;SDS011;41041;43.162;20.538;2023-03-04T06:29:42;32.30;;;16.73;;
55150;SDS011;41041;43.162;20.538;2023-03-04T06:32:08;31.90;;;15.02;;
55150;SDS011;41041;43.162;20.538;2023-03-04T06:34:34;30.95;;;15.20;;
55150;SDS011;41041;43.162;20.538;2023-03-04T06:37:01;32.00;;;14.82;;
55150;SDS011;41041;43.162;20.538;2023-03-04T06:39:27;31.95;;;16.67;;
55150;SDS011;41041;43.162;20.538;2023-03-04T06:41:53;26.90;;;15.70;;
55150;SDS011;41041;43.162;20.538;2023-03-04T06:44:19;28.92;;;15.68;;
55150;SDS011;41041;43.162;20.538;2023-03-04T06:46:45;30.20;;;15.73;;
55150;SDS011;41041;43.162;20.538;2023-03-04T06:49:12;28.73;;;15.30;;
55150;SDS011;41041;43.162;20.538;2023-03-04T06:54:36;29.88;;;16.40;;
55150;SDS011;41041;43.162;20.538;2023-03-04T06:57:02;28.30;;;15.85;;
55150;SDS011;41041;43.162;20.538;2023-03-04T06:59:29;26.42;;;15.38;;
55150;SDS011;41041;43.162;20.538;2023-03-04T07:01:55;24.15;;;14.18;;
55150;SDS011;41041;43.162;20.538;2023-03-04T07:04:21;25.02;;;15.38;;
55150;SDS011;41041;43.162;20.538;2023-03-04T07:06:47;27.55;;;14.80;;
55150;SDS011;41041;43.162;20.538;2023-03-04T07:09:14;26.52;;;14.18;;
55150;SDS011;41041;43.162;20.538;2023-03-04T07:11:40;22.98;;;13.70;;
55150;SDS011;41041;43.162;20.538;2023-03-04T07:14:06;28.23;;;15.15;;
55150;SDS011;41041;43.162;20.538;2023-03-04T07:16:32;36.05;;;17.83;;
55150;SDS011;41041;43.162;20.538;2023-03-04T07:18:58;34.00;;;16.13;;
55150;SDS011;41041;43.162;20.538;2023-03-04T07:21:29;23.45;;;13.73;;
55150;SDS011;41041;43.162;20.538;2023-03-04T07:26:22;30.33;;;15.63;;
55150;SDS011;41041;43.162;20.538;2023-03-04T07:28:48;34.60;;;19.02;;
55150;SDS011;41041;43.162;20.538;2023-03-04T07:33:42;36.95;;;22.98;;
55150;SDS011;41041;43.162;20.538;2023-03-04T07:36:08;33.63;;;18.48;;
55150;SDS011;41041;43.162;20.538;2023-03-04T07:38:35;26.15;;;14.77;;
55150;SDS011;41041;43.162;20.538;2023-03-04T07:41:01;27.92;;;16.65;;
55150;SDS011;41041;43.162;20.538;2023-03-04T07:43:27;31.00;;;17.55;;
55150;SDS011;41041;43.162;20.538;2023-03-04T07:46:00;30.38;;;15.52;;
55150;SDS011;41041;43.162;20.538;2023-03-04T07:48:26;24.90;;;14.82;;
55150;SDS011;41041;43.162;20.538;2023-03-04T07:51:05;23.42;;;13.45;;
55150;SDS011;41041;43.162;20.538;2023-03-04T07:53:31;27.25;;;13.88;;
55150;SDS011;41041;43.162;20.538;2023-03-04T07:55:58;21.70;;;11.93;;
55150;SDS011;41041;43.162;20.538;2023-03-04T07:58:24;25.05;;;13.30;;
55150;SDS011;41041;43.162;20.538;2023-03-04T08:00:50;79.05;;;32.85;;
55150;SDS011;41041;43.162;20.538;2023-03-04T08:03:16;181.65;;;65.05;;
55150;SDS011;41041;43.162;20.538;2023-03-04T08:05:42;19.02;;;10.55;;
55150;SDS011;41041;43.162;20.538;2023-03-04T08:08:08;53.63;;;24.50;;
55150;SDS011;41041;43.162;20.538;2023-03-04T08:10:39;28.73;;;15.13;;
55150;SDS011;41041;43.162;20.538;2023-03-04T08:13:06;22.05;;;11.13;;
55150;SDS011;41041;43.162;20.538;2023-03-04T08:15:32;23.15;;;9.95;;
55150;SDS011;41041;43.162;20.538;2023-03-04T08:17:59;22.27;;;11.63;;
55150;SDS011;41041;43.162;20.538;2023-03-04T08:20:25;17.27;;;9.57;;
55150;SDS011;41041;43.162;20.538;2023-03-04T08:22:52;23.80;;;9.93;;
55150;SDS011;41041;43.162;20.538;2023-03-04T08:25:18;19.75;;;9.90;;
55150;SDS011;41041;43.162;20.538;2023-03-04T08:27:45;16.23;;;9.25;;
55150;SDS011;41041;43.162;20.538;2023-03-04T08:32:41;20.58;;;9.90;;
55150;SDS011;41041;43.162;20.538;2023-03-04T08:35:07;19.80;;;9.82;;
55150;SDS011;41041;43.162;20.538;2023-03-04T08:37:43;19.33;;;10.07;;
55150;SDS011;41041;43.162;20.538;2023-03-04T08:40:10;18.23;;;9.80;;
55150;SDS011;41041;43.162;20.538;2023-03-04T08:42:36;21.15;;;9.18;;
55150;SDS011;41041;43.162;20.538;2023-03-04T08:45:02;20.20;;;10.30;;
55150;SDS011;41041;43.162;20.538;2023-03-04T08:47:29;17.13;;;8.30;;
55150;SDS011;41041;43.162;20.538;2023-03-04T08:52:41;17.77;;;8.95;;
55150;SDS011;41041;43.162;20.538;2023-03-04T08:55:07;17.45;;;8.05;;
55150;SDS011;41041;43.162;20.538;2023-03-04T08:57:33;15.93;;;8.57;;
55150;SDS011;41041;43.162;20.538;2023-03-04T08:59:59;16.80;;;8.80;;
55150;SDS011;41041;43.162;20.538;2023-03-04T09:02:27;14.90;;;7.75;;
55150;SDS011;41041;43.162;20.538;2023-03-04T09:04:53;13.77;;;8.52;;
55150;SDS011;41041;43.162;20.538;2023-03-04T09:07:19;18.92;;;8.40;;
55150;SDS011;41041;43.162;20.538;2023-03-04T09:09:45;20.67;;;9.35;;
55150;SDS011;41041;43.162;20.538;2023-03-04T09:12:11;20.38;;;9.38;;
55150;SDS011;41041;43.162;20.538;2023-03-04T09:14:37;19.60;;;9.55;;
55150;SDS011;41041;43.162;20.538;2023-03-04T09:17:05;17.55;;;8.50;;
55150;SDS011;41041;43.162;20.538;2023-03-04T09:19:31;14.43;;;7.82;;
55150;SDS011;41041;43.162;20.538;2023-03-04T09:21:57;17.92;;;8.43;;
55150;SDS011;41041;43.162;20.538;2023-03-04T09:24:24;15.15;;;8.27;;
55150;SDS011;41041;43.162;20.538;2023-03-04T09:26:54;19.00;;;8.40;;
55150;SDS011;41041;43.162;20.538;2023-03-04T09:29:20;20.48;;;8.77;;
55150;SDS011;41041;43.162;20.538;2023-03-04T09:31:46;15.30;;;8.45;;
55150;SDS011;41041;43.162;20.538;2023-03-04T09:34:12;18.73;;;9.07;;
55150;SDS011;41041;43.162;20.538;2023-03-04T09:36:39;18.42;;;8.35;;
55150;SDS011;41041;43.162;20.538;2023-03-04T09:39:05;14.90;;;7.97;;
55150;SDS011;41041;43.162;20.538;2023-03-04T09:42:05;21.63;;;9.52;;
55150;SDS011;41041;43.162;20.538;2023-03-04T09:44:25;14.30;;;7.00;;
55150;SDS011;41041;43.162;20.538;2023-03-04T09:46:53;18.27;;;8.50;;
55150;SDS011;41041;43.162;20.538;2023-03-04T09:49:25;14.93;;;7.63;;
55150;SDS011;41041;43.162;20.538;2023-03-04T09:51:58;13.63;;;7.57;;
55150;SDS011;41041;43.162;20.538;2023-03-04T10:00:31;13.35;;;6.97;;
55150;SDS011;41041;43.162;20.538;2023-03-04T10:05:15;19.25;;;7.75;;
55150;SDS011;41041;43.162;20.538;2023-03-04T10:07:42;15.55;;;7.22;;
55150;SDS011;41041;43.162;20.538;2023-03-04T10:12:42;16.17;;;7.55;;
55150;SDS011;41041;43.162;20.538;2023-03-04T10:17:43;25.98;;;9.93;;
55150;SDS011;41041;43.162;20.538;2023-03-04T10:20:18;20.45;;;9.05;;
55150;SDS011;41041;43.162;20.538;2023-03-04T10:22:47;36.88;;;15.68;;
55150;SDS011;41041;43.162;20.538;2023-03-04T10:25:20;27.88;;;12.05;;
55150;SDS011;41041;43.162;20.538;2023-03-04T10:31:36;30.25;;;13.27;;
55150;SDS011;41041;43.162;20.538;2023-03-04T10:33:31;37.83;;;15.65;;
55150;SDS011;41041;43.162;20.538;2023-03-04T10:36:35;58.80;;;22.98;;
55150;SDS011;41041;43.162;20.538;2023-03-04T10:38:53;46.33;;;20.42;;
55150;SDS011;41041;43.162;20.538;2023-03-04T10:41:20;48.40;;;19.63;;
55150;SDS011;41041;43.162;20.538;2023-03-04T10:46:39;36.42;;;18.83;;
55150;SDS011;41041;43.162;20.538;2023-03-04T10:49:10;47.10;;;21.90;;
55150;SDS011;41041;43.162;20.538;2023-03-04T11:01:49;27.35;;;12.70;;
55150;SDS011;41041;43.162;20.538;2023-03-04T11:04:19;18.65;;;10.82;;
55150;SDS011;41041;43.162;20.538;2023-03-04T11:06:52;30.65;;;11.05;;
55150;SDS011;41041;43.162;20.538;2023-03-04T11:09:23;24.45;;;10.43;;
55150;SDS011;41041;43.162;20.538;2023-03-04T11:11:49;21.58;;;10.32;;
55150;SDS011;41041;43.162;20.538;2023-03-04T11:16:56;22.60;;;9.10;;
55150;SDS011;41041;43.162;20.538;2023-03-04T11:19:23;26.38;;;11.90;;
55150;SDS011;41041;43.162;20.538;2023-03-04T11:21:50;22.70;;;11.75;;
55150;SDS011;41041;43.162;20.538;2023-03-04T11:24:24;16.83;;;7.13;;
55150;SDS011;41041;43.162;20.538;2023-03-04T11:26:55;15.65;;;6.85;;
55150;SDS011;41041;43.162;20.538;2023-03-04T11:29:25;17.15;;;8.48;;
55150;SDS011;41041;43.162;20.538;2023-03-04T11:31:57;21.20;;;9.75;;
55150;SDS011;41041;43.162;20.538;2023-03-04T11:37:38;21.10;;;9.30;;
55150;SDS011;41041;43.162;20.538;2023-03-04T11:40:10;12.30;;;6.80;;
55150;SDS011;41041;43.162;20.538;2023-03-04T11:48:11;12.23;;;6.45;;
55150;SDS011;41041;43.162;20.538;2023-03-04T11:53:43;18.30;;;7.68;;
55150;SDS011;41041;43.162;20.538;2023-03-04T12:04:00;18.98;;;9.10;;
55150;SDS011;41041;43.162;20.538;2023-03-04T12:06:43;19.88;;;10.38;;
55150;SDS011;41041;43.162;20.538;2023-03-04T12:09:21;21.83;;;10.57;;
55150;SDS011;41041;43.162;20.538;2023-03-04T12:27:39;36.10;;;14.85;;
55150;SDS011;41041;43.162;20.538;2023-03-04T12:36:01;25.10;;;14.00;;
55150;SDS011;41041;43.162;20.538;2023-03-04T12:41:50;22.23;;;11.90;;
55150;SDS011;41041;43.162;20.538;2023-03-04T12:56:03;21.10;;;9.65;;
55150;SDS011;41041;43.162;20.538;2023-03-04T12:58:31;35.20;;;12.13;;
55150;SDS011;41041;43.162;20.538;2023-03-04T13:14:25;36.85;;;14.57;;
55150;SDS011;41041;43.162;20.538;2023-03-04T13:16:53;25.75;;;12.82;;
55150;SDS011;41041;43.162;20.538;2023-03-04T13:24:53;23.23;;;12.48;;
55150;SDS011;41041;43.162;20.538;2023-03-04T13:32:58;24.13;;;13.73;;
55150;SDS011;41041;43.162;20.538;2023-03-04T13:38:21;32.25;;;13.82;;
55150;SDS011;41041;43.162;20.538;2023-03-04T13:43:56;33.25;;;15.48;;
55150;SDS011;41041;43.162;20.538;2023-03-04T13:51:25;23.67;;;13.65;;
55150;SDS011;41041;43.162;20.538;2023-03-04T13:59:26;13.82;;;8.77;;
55150;SDS011;41041;43.162;20.538;2023-03-04T14:04:33;15.73;;;8.98;;
55150;SDS011;41041;43.162;20.538;2023-03-04T14:07:01;17.23;;;8.93;;
55150;SDS011;41041;43.162;20.538;2023-03-04T14:09:31;17.42;;;8.70;;
55150;SDS011;41041;43.162;20.538;2023-03-04T14:11:59;14.00;;;7.60;;
55150;SDS011;41041;43.162;20.538;2023-03-04T14:17:30;14.07;;;8.18;;
55150;SDS011;41041;43.162;20.538;2023-03-04T14:19:56;19.08;;;9.68;;
55150;SDS011;41041;43.162;20.538;2023-03-04T14:22:31;14.55;;;8.27;;
55150;SDS011;41041;43.162;20.538;2023-03-04T14:27:32;13.10;;;8.57;;
55150;SDS011;41041;43.162;20.538;2023-03-04T14:30:01;20.13;;;9.40;;
55150;SDS011;41041;43.162;20.538;2023-03-04T14:32:27;18.63;;;9.85;;
55150;SDS011;41041;43.162;20.538;2023-03-04T14:35:01;17.55;;;9.63;;
55150;SDS011;41041;43.162;20.538;2023-03-04T14:38:13;18.63;;;9.07;;
55150;SDS011;41041;43.162;20.538;2023-03-04T14:40:19;15.63;;;8.68;;
55150;SDS011;41041;43.162;20.538;2023-03-04T14:42:47;20.77;;;9.55;;
55150;SDS011;41041;43.162;20.538;2023-03-04T14:45:15;19.80;;;10.88;;
55150;SDS011;41041;43.162;20.538;2023-03-04T14:47:42;17.27;;;9.00;;
55150;SDS011;41041;43.162;20.538;2023-03-04T14:50:15;19.48;;;10.57;;
55150;SDS011;41041;43.162;20.538;2023-03-04T14:55:15;20.08;;;11.48;;
55150;SDS011;41041;43.162;20.538;2023-03-04T14:57:42;19.88;;;10.32;;
55150;SDS011;41041;43.162;20.538;2023-03-04T15:02:47;16.88;;;9.60;;
55150;SDS011;41041;43.162;20.538;2023-03-04T15:08:17;17.38;;;9.88;;
55150;SDS011;41041;43.162;20.538;2023-03-04T15:10:52;26.05;;;11.20;;
55150;SDS011;41041;43.162;20.538;2023-03-04T15:13:19;20.27;;;10.77;;
55150;SDS011;41041;43.162;20.538;2023-03-04T15:16:01;20.45;;;11.25;;
55150;SDS011;41041;43.162;20.538;2023-03-04T15:18:27;21.70;;;11.75;;
55150;SDS011;41041;43.162;20.538;2023-03-04T15:20:57;22.77;;;11.77;;
55150;SDS011;41041;43.162;20.538;2023-03-04T15:23:24;19.73;;;12.05;;
55150;SDS011;41041;43.162;20.538;2023-03-04T15:25:51;20.42;;;11.60;;
55150;SDS011;41041;43.162;20.538;2023-03-04T15:28:19;22.35;;;11.85;;
55150;SDS011;41041;43.162;20.538;2023-03-04T15:30:45;19.00;;;11.77;;
55150;SDS011;41041;43.162;20.538;2023-03-04T15:33:11;20.50;;;12.23;;
55150;SDS011;41041;43.162;20.538;2023-03-04T15:35:37;21.92;;;12.32;;
55150;SDS011;41041;43.162;20.538;2023-03-04T15:38:05;21.30;;;11.77;;
55150;SDS011;41041;43.162;20.538;2023-03-04T15:40:33;26.90;;;13.90;;
55150;SDS011;41041;43.162;20.538;2023-03-04T15:45:47;19.88;;;12.35;;
55150;SDS011;41041;43.162;20.538;2023-03-04T15:48:15;21.80;;;13.75;;
55150;SDS011;41041;43.162;20.538;2023-03-04T15:50:54;24.90;;;12.85;;
55150;SDS011;41041;43.162;20.538;2023-03-04T15:55:50;25.80;;;14.32;;
55150;SDS011;41041;43.162;20.538;2023-03-04T15:58:16;28.17;;;13.70;;
55150;SDS011;41041;43.162;20.538;2023-03-04T16:00:42;22.02;;;12.10;;
55150;SDS011;41041;43.162;20.538;2023-03-04T16:03:18;21.00;;;13.45;;
55150;SDS011;41041;43.162;20.538;2023-03-04T16:05:47;38.17;;;19.20;;
55150;SDS011;41041;43.162;20.538;2023-03-04T16:08:14;35.80;;;20.63;;
55150;SDS011;41041;43.162;20.538;2023-03-04T16:10:41;27.85;;;15.63;;
55150;SDS011;41041;43.162;20.538;2023-03-04T16:13:14;22.15;;;14.23;;
55150;SDS011;41041;43.162;20.538;2023-03-04T16:15:41;28.13;;;16.80;;
55150;SDS011;41041;43.162;20.538;2023-03-04T16:18:07;28.90;;;15.82;;
55150;SDS011;41041;43.162;20.538;2023-03-04T16:20:34;23.75;;;14.13;;
55150;SDS011;41041;43.162;20.538;2023-03-04T16:23:00;21.77;;;13.02;;
55150;SDS011;41041;43.162;20.538;2023-03-04T16:27:56;40.03;;;24.33;;
55150;SDS011;41041;43.162;20.538;2023-03-04T16:30:24;50.53;;;29.25;;
55150;SDS011;41041;43.162;20.538;2023-03-04T16:32:51;21.02;;;13.30;;
55150;SDS011;41041;43.162;20.538;2023-03-04T16:35:18;23.92;;;13.85;;
55150;SDS011;41041;43.162;20.538;2023-03-04T16:37:49;24.08;;;15.13;;
55150;SDS011;41041;43.162;20.538;2023-03-04T16:42:41;27.42;;;14.25;;
55150;SDS011;41041;43.162;20.538;2023-03-04T16:45:15;23.23;;;14.25;;
55150;SDS011;41041;43.162;20.538;2023-03-04T16:47:41;25.73;;;14.07;;
55150;SDS011;41041;43.162;20.538;2023-03-04T16:50:09;42.03;;;24.90;;
55150;SDS011;41041;43.162;20.538;2023-03-04T16:52:36;31.33;;;17.83;;
55150;SDS011;41041;43.162;20.538;2023-03-04T16:55:03;22.45;;;14.23;;
55150;SDS011;41041;43.162;20.538;2023-03-04T17:02:27;25.08;;;13.60;;
55150;SDS011;41041;43.162;20.538;2023-03-04T17:04:56;22.55;;;13.23;;
55150;SDS011;41041;43.162;20.538;2023-03-04T17:07:23;22.38;;;13.93;;
55150;SDS011;41041;43.162;20.538;2023-03-04T17:09:49;22.88;;;13.07;;
55150;SDS011;41041;43.162;20.538;2023-03-04T17:12:15;19.73;;;12.45;;
55150;SDS011;41041;43.162;20.538;2023-03-04T17:14:41;22.42;;;13.40;;
55150;SDS011;41041;43.162;20.538;2023-03-04T17:17:08;21.75;;;13.32;;
55150;SDS011;41041;43.162;20.538;2023-03-04T17:19:34;22.95;;;13.82;;
55150;SDS011;41041;43.162;20.538;2023-03-04T17:22:00;24.02;;;13.75;;